Terminal Aerodrome Forecast
Issued by NWS Atlanta, GA

Home | Current Version | Previous Version | Text Only | Print | Product List | Glossary On
Versions: 1 2 3 4 5 6 7 8 9 10 11 12 13 14 15 16 17 18 19 20 21 22 23 24 25 26 27 28 29 30 31 32 33 34 35 36 37
000
FTUS42 KFFC 282143 AAB
TAFATL
TAF AMD
KATL 282143Z 2822/2924 08009KT P6SM FEW050
     FM290300 09005KT P6SM FEW060 SCT250
     FM291500 02005KT P6SM FEW040 SCT120
     FM291800 34007KT P6SM SCT060 BKN120=

USA.gov is the U.S. government's official web portal to all federal, state and local government web resources and services.